Athens, Alabama
Current Conditions -  °F | °C
As of 9:53 PM on Thursday 27 Nov 2014 (Local Time) from KDCU Reporting Station
Broken Clouds Broken Clouds  
Wind Chill: 28°   Ceiling: 3400
Heat Index: 33°   Visibility: 10mi
Dew Point: 24°   Wind: 6mph
Humidity: 70%   Direction: 310°NW
Pressure: 30.48"   Gusts: NA
Location:  34.8°N, 86.97°W
Report Text: KDCU 280353Z AUTO 31005KT 10SM BKN034 01/M04 A3048 RMK AO2 SLP322 T00061044 $
Loading
Personal Weather Stations






























Interactive Weather Map New forecast layout! Learn more

10-Day Weather Forecast

Advertisements
Track Severe Weather on mobile